createdAt,value
2023-03-27T00:00:01.474Z,11.08
2023-03-27T00:01:03.347Z,10.93
2023-03-27T00:02:06.339Z,10.85
2023-03-27T00:03:10.212Z,11.02
2023-03-27T00:04:13.260Z,10.91
2023-03-27T00:05:20.864Z,10.72
2023-03-27T00:06:24.867Z,10.75
2023-03-27T00:07:27.331Z,10.64
2023-03-27T00:08:29.990Z,10.81
2023-03-27T00:09:32.726Z,11.05
2023-03-27T00:10:34.838Z,10.93
2023-03-27T00:11:37.030Z,11.00
2023-03-27T00:12:39.295Z,10.96
2023-03-27T00:13:48.895Z,10.93
2023-03-27T00:14:52.643Z,10.93
2023-03-27T00:15:57.051Z,11.00
2023-03-27T00:17:00.274Z,11.10
2023-03-27T00:18:04.227Z,11.04
2023-03-27T00:19:06.571Z,10.96
2023-03-27T00:20:08.739Z,10.95
2023-03-27T00:21:10.610Z,10.97
2023-03-27T00:22:12.877Z,10.90
2023-03-27T00:23:15.372Z,10.88
2023-03-27T00:24:17.310Z,10.91
2023-03-27T00:25:19.809Z,10.90
2023-03-27T00:26:22.139Z,10.70
2023-03-27T00:27:25.111Z,10.69
2023-03-27T00:28:29.373Z,10.68
2023-03-27T00:29:31.311Z,10.66
2023-03-27T00:30:33.717Z,10.61
2023-03-27T00:31:35.714Z,10.56
2023-03-27T00:32:37.614Z,10.45
2023-03-27T00:33:40.811Z,10.60
2023-03-27T00:34:42.655Z,10.69
2023-03-27T00:35:46.836Z,10.71
2023-03-27T00:36:51.222Z,10.64
2023-03-27T00:37:53.870Z,10.70
2023-03-27T00:38:56.097Z,10.74
2023-03-27T00:39:58.281Z,10.77
2023-03-27T00:41:00.580Z,10.82
2023-03-27T00:42:03.440Z,10.77
2023-03-27T00:43:29.099Z,10.81
2023-03-27T00:44:35.522Z,10.79
2023-03-27T00:45:38.582Z,10.79
2023-03-27T00:46:45.221Z,10.99
2023-03-27T00:47:54.223Z,10.94
2023-03-27T00:49:01.551Z,10.80
2023-03-27T00:50:08.834Z,10.70
2023-03-27T00:51:10.850Z,10.73
2023-03-27T00:52:13.694Z,10.85
2023-03-27T00:53:22.575Z,10.88
2023-03-27T00:54:30.024Z,10.94
2023-03-27T00:55:36.376Z,10.96
2023-03-27T00:56:38.934Z,11.01
2023-03-27T00:57:44.675Z,10.96
2023-03-27T00:58:56.903Z,10.77
2023-03-27T01:00:02.291Z,10.77
2023-03-27T01:01:07.944Z,10.81
2023-03-27T01:02:10.203Z,10.73
2023-03-27T01:03:12.521Z,10.69
2023-03-27T01:04:14.694Z,10.54
2023-03-27T01:05:20.031Z,10.56
2023-03-27T01:06:23.455Z,10.53
2023-03-27T01:07:25.848Z,10.58
2023-03-27T01:08:30.676Z,10.59
2023-03-27T01:09:33.536Z,10.60
2023-03-27T01:10:53.808Z,10.68
2023-03-27T01:11:56.123Z,10.66
2023-03-27T01:13:33.333Z,10.78
2023-03-27T01:15:20.207Z,10.76
2023-03-27T01:16:40.962Z,10.89
2023-03-27T01:17:57.847Z,10.79
2023-03-27T01:19:11.661Z,10.82
2023-03-27T01:20:32.566Z,10.82
2023-03-27T01:21:48.192Z,10.86
2023-03-27T01:23:06.242Z,10.86
2023-03-27T01:24:42.577Z,10.88
2023-03-27T01:26:00.711Z,10.88
2023-03-27T01:27:11.136Z,10.85
2023-03-27T01:28:29.052Z,11.02
2023-03-27T01:29:48.376Z,10.95
2023-03-27T01:30:52.464Z,10.77
2023-03-27T01:32:02.100Z,10.78
2023-03-27T01:33:28.385Z,10.83
2023-03-27T01:35:01.826Z,10.86
2023-03-27T01:36:11.650Z,10.79
2023-03-27T01:37:42.284Z,10.72
2023-03-27T01:39:11.631Z,10.63
2023-03-27T01:40:21.787Z,10.71
2023-03-27T01:41:26.851Z,10.65
2023-03-27T01:42:35.085Z,10.65
2023-03-27T01:43:46.073Z,10.63
2023-03-27T01:45:09.530Z,10.64
2023-03-27T01:46:27.006Z,10.64
2023-03-27T01:47:36.990Z,10.55
2023-03-27T01:48:44.812Z,10.49
2023-03-27T01:49:57.273Z,10.37
2023-03-27T01:51:09.866Z,10.32
2023-03-27T01:52:21.104Z,10.29
2023-03-27T01:53:28.830Z,10.29
2023-03-27T01:54:36.009Z,10.44
2023-03-27T01:55:44.324Z,10.37
2023-03-27T01:56:54.607Z,10.33
2023-03-27T01:58:07.553Z,10.40
2023-03-27T01:59:18.885Z,10.36
2023-03-27T02:00:24.351Z,10.39
2023-03-27T02:01:42.264Z,10.41
2023-03-27T02:03:08.040Z,10.46
2023-03-27T02:04:20.677Z,10.51
2023-03-27T02:05:28.724Z,10.54
2023-03-27T02:06:37.903Z,10.50
2023-03-27T02:07:47.484Z,10.45
2023-03-27T02:09:06.925Z,10.52
2023-03-27T02:10:15.454Z,10.48
2023-03-27T02:11:18.191Z,10.61
2023-03-27T02:12:32.071Z,10.66
2023-03-27T02:13:52.252Z,10.54
2023-03-27T02:15:23.628Z,10.46
2023-03-27T02:16:34.348Z,10.51
2023-03-27T02:17:43.185Z,10.55
2023-03-27T02:18:54.383Z,10.54
2023-03-27T02:20:16.322Z,10.60
2023-03-27T02:21:18.529Z,10.61
2023-03-27T02:22:20.898Z,10.70
2023-03-27T02:23:40.581Z,10.76
2023-03-27T02:24:46.351Z,10.69
2023-03-27T02:25:48.549Z,10.66
2023-03-27T02:26:59.803Z,10.63
2023-03-27T02:28:15.476Z,10.71
2023-03-27T02:29:36.312Z,10.71
2023-03-27T02:31:32.170Z,10.64
2023-03-27T02:33:14.916Z,10.60
2023-03-27T02:34:26.498Z,10.49
2023-03-27T02:35:57.247Z,10.31
2023-03-27T02:37:32.357Z,10.23
2023-03-27T02:38:45.208Z,10.17
2023-03-27T02:40:18.769Z,10.25
2023-03-27T02:41:36.522Z,10.28
2023-03-27T02:42:46.433Z,10.21
2023-03-27T02:44:06.372Z,10.23
2023-03-27T02:45:26.637Z,10.11
2023-03-27T02:46:42.926Z,10.09
2023-03-27T02:48:08.428Z,10.14
2023-03-27T02:49:17.341Z,10.25
2023-03-27T02:50:26.507Z,10.28
2023-03-27T02:51:40.421Z,10.26
2023-03-27T02:52:48.065Z,10.32
2023-03-27T02:53:59.462Z,10.35
2023-03-27T02:55:06.874Z,10.44
2023-03-27T02:56:12.003Z,10.28
2023-03-27T02:57:20.539Z,10.32
2023-03-27T02:58:30.718Z,10.42
2023-03-27T02:59:39.444Z,10.44
2023-03-27T03:00:48.981Z,10.47
2023-03-27T03:01:53.011Z,10.46
2023-03-27T03:03:09.098Z,10.47
2023-03-27T03:04:24.558Z,10.51
2023-03-27T03:05:28.508Z,10.32
2023-03-27T03:06:30.846Z,10.41
2023-03-27T03:07:34.779Z,10.44
2023-03-27T03:08:41.077Z,10.42
2023-03-27T03:09:44.605Z,10.29
2023-03-27T03:10:47.719Z,10.27
2023-03-27T03:11:52.621Z,10.36
2023-03-27T03:12:55.018Z,10.44
2023-03-27T03:13:57.361Z,10.37
2023-03-27T03:14:59.278Z,10.36
2023-03-27T03:16:01.239Z,10.33
2023-03-27T03:17:03.514Z,10.38
2023-03-27T03:18:07.273Z,10.22
2023-03-27T03:19:09.353Z,10.31
2023-03-27T03:20:13.036Z,10.40
2023-03-27T03:21:15.385Z,10.39
2023-03-27T03:22:17.276Z,10.45
2023-03-27T03:23:22.561Z,10.49
2023-03-27T03:24:25.026Z,10.45
2023-03-27T03:25:27.040Z,10.37
2023-03-27T03:26:30.064Z,10.31
2023-03-27T03:27:34.122Z,10.26
2023-03-27T03:28:36.722Z,10.39
2023-03-27T03:29:38.584Z,10.49
2023-03-27T03:30:43.369Z,10.54
2023-03-27T03:31:45.779Z,10.51
2023-03-27T03:32:47.840Z,10.48
2023-03-27T03:33:50.653Z,10.49
2023-03-27T03:34:52.657Z,10.44
2023-03-27T03:35:54.896Z,10.44
2023-03-27T03:36:58.175Z,10.29
2023-03-27T03:38:03.886Z,10.42
2023-03-27T03:39:09.966Z,10.17
2023-03-27T03:40:12.153Z,10.18
2023-03-27T03:41:14.597Z,10.17
2023-03-27T03:42:22.354Z,10.38
2023-03-27T03:43:28.154Z,10.12
2023-03-27T03:44:32.876Z,10.19
2023-03-27T03:45:35.370Z,10.19
2023-03-27T03:46:37.301Z,10.23
2023-03-27T03:47:39.343Z,10.24
2023-03-27T03:48:41.616Z,10.20
2023-03-27T03:49:43.869Z,10.19
2023-03-27T03:50:47.075Z,10.19
2023-03-27T03:52:03.765Z,10.22
2023-03-27T03:53:07.242Z,10.15
2023-03-27T03:54:09.387Z,9.99
2023-03-27T03:55:12.159Z,10.05
2023-03-27T03:56:15.068Z,10.15
2023-03-27T03:57:18.499Z,10.07
2023-03-27T03:58:34.604Z,10.12
2023-03-27T03:59:39.211Z,10.01
2023-03-27T04:00:43.780Z,10.11
2023-03-27T04:01:46.622Z,10.17
2023-03-27T04:02:58.146Z,10.26
2023-03-27T04:04:00.292Z,10.30
2023-03-27T04:05:09.094Z,10.22
2023-03-27T04:06:14.093Z,10.14
2023-03-27T04:07:17.735Z,10.20
2023-03-27T04:08:20.245Z,10.27
2023-03-27T04:09:22.562Z,10.08
2023-03-27T04:10:26.897Z,10.07
2023-03-27T04:11:29.000Z,9.99
2023-03-27T04:12:32.551Z,9.90
2023-03-27T04:13:34.769Z,10.08
2023-03-27T04:14:45.276Z,10.06
2023-03-27T04:15:48.565Z,10.04
2023-03-27T04:16:50.837Z,10.36
2023-03-27T04:17:53.824Z,10.29
2023-03-27T04:18:55.877Z,10.17
2023-03-27T04:19:58.077Z,10.21
2023-03-27T04:21:00.123Z,10.28
2023-03-27T04:22:02.598Z,10.18
2023-03-27T04:23:05.640Z,10.15
2023-03-27T04:24:09.753Z,10.15
2023-03-27T04:25:17.447Z,10.23
2023-03-27T04:26:26.405Z,10.23
2023-03-27T04:27:37.695Z,10.22
2023-03-27T04:28:42.180Z,10.29
2023-03-27T04:29:47.376Z,10.19
2023-03-27T04:31:06.487Z,10.18
2023-03-27T04:32:19.268Z,10.13
2023-03-27T04:33:24.261Z,10.22
2023-03-27T04:34:27.662Z,10.03
2023-03-27T04:35:37.262Z,10.01
2023-03-27T04:36:39.774Z,9.89
2023-03-27T04:37:43.048Z,10.02
2023-03-27T04:38:45.698Z,10.01
2023-03-27T04:39:49.834Z,10.04
2023-03-27T04:40:54.700Z,10.10
2023-03-27T04:41:58.379Z,10.05
2023-03-27T04:43:05.321Z,10.13
2023-03-27T04:44:07.541Z,10.17
2023-03-27T04:45:17.314Z,10.12
2023-03-27T04:46:20.171Z,10.13
2023-03-27T04:47:28.200Z,10.13
2023-03-27T04:48:34.520Z,10.08
2023-03-27T04:49:40.694Z,10.24
2023-03-27T04:50:49.307Z,10.18
2023-03-27T04:51:56.830Z,10.27
2023-03-27T04:53:03.088Z,10.42
2023-03-27T04:54:09.036Z,10.39
2023-03-27T04:55:16.800Z,10.20
2023-03-27T04:56:22.899Z,10.19
2023-03-27T04:57:30.974Z,10.09
2023-03-27T04:58:35.959Z,10.12
2023-03-27T04:59:42.140Z,10.11
2023-03-27T05:00:50.322Z,10.09
2023-03-27T05:01:55.428Z,10.13
2023-03-27T05:02:57.751Z,9.99
2023-03-27T05:04:02.508Z,10.05
2023-03-27T05:05:05.880Z,10.23
2023-03-27T05:06:08.572Z,9.97
2023-03-27T05:07:12.352Z,10.03
2023-03-27T05:08:14.341Z,10.02
2023-03-27T05:09:17.979Z,10.08
2023-03-27T05:10:21.843Z,10.04
2023-03-27T05:11:24.539Z,10.08
2023-03-27T05:12:27.972Z,9.95
2023-03-27T05:13:31.586Z,9.96
2023-03-27T05:14:33.746Z,9.92
2023-03-27T05:15:35.657Z,9.86
2023-03-27T05:16:38.452Z,10.02
2023-03-27T05:17:43.192Z,9.94
2023-03-27T05:18:45.232Z,10.07
2023-03-27T05:19:47.226Z,9.88
2023-03-27T05:20:50.107Z,10.00
2023-03-27T05:21:52.572Z,9.86
2023-03-27T05:22:56.385Z,9.73
2023-03-27T05:23:58.804Z,9.70
2023-03-27T05:25:01.574Z,9.97
2023-03-27T05:26:03.687Z,9.93
2023-03-27T05:27:17.297Z,9.89
2023-03-27T05:28:20.908Z,9.87
2023-03-27T05:29:22.837Z,11.17
2023-03-27T05:30:30.629Z,12.34
2023-03-27T05:31:35.066Z,12.50
2023-03-27T05:32:38.706Z,11.99
2023-03-27T05:33:41.757Z,11.66
2023-03-27T05:34:45.928Z,11.36
2023-03-27T05:35:52.571Z,11.19
2023-03-27T05:36:55.732Z,11.12
2023-03-27T05:37:59.080Z,10.86
2023-03-27T05:39:04.622Z,10.74
2023-03-27T05:40:07.886Z,10.73
2023-03-27T05:41:10.354Z,10.64
2023-03-27T05:42:16.834Z,10.49
2023-03-27T05:43:18.722Z,10.42
2023-03-27T05:44:21.287Z,10.33
2023-03-27T05:45:24.225Z,10.31
2023-03-27T05:46:26.174Z,10.44
2023-03-27T05:47:28.723Z,10.46
2023-03-27T05:48:31.033Z,10.43
2023-03-27T05:49:34.325Z,10.44
2023-03-27T05:50:41.687Z,10.51
2023-03-27T05:51:47.884Z,10.29
2023-03-27T05:52:58.327Z,10.32
2023-03-27T05:54:02.021Z,10.28
2023-03-27T05:55:08.233Z,10.31
2023-03-27T05:56:13.212Z,10.13
2023-03-27T05:57:17.090Z,10.16
2023-03-27T05:58:19.214Z,10.21
2023-03-27T05:59:22.100Z,10.20
2023-03-27T06:00:26.545Z,10.07
2023-03-27T06:01:29.230Z,10.34
2023-03-27T06:02:31.760Z,10.26
2023-03-27T06:03:38.514Z,10.10
2023-03-27T06:04:41.517Z,10.18
2023-03-27T06:05:47.079Z,10.25
2023-03-27T06:06:49.883Z,10.19
2023-03-27T06:07:52.314Z,10.26
2023-03-27T06:08:54.332Z,10.20
2023-03-27T06:09:57.106Z,10.07
2023-03-27T06:11:11.458Z,10.15
2023-03-27T06:12:16.217Z,10.02
2023-03-27T06:13:18.636Z,9.91
2023-03-27T06:14:24.245Z,9.97
2023-03-27T06:15:30.289Z,9.75
2023-03-27T06:16:34.335Z,9.88
2023-03-27T06:17:42.408Z,9.87
2023-03-27T06:18:44.377Z,9.95
2023-03-27T06:19:47.093Z,10.00
2023-03-27T06:20:50.123Z,10.05
2023-03-27T06:21:52.360Z,9.90
2023-03-27T06:22:57.577Z,9.98
2023-03-27T06:24:00.868Z,9.85
2023-03-27T06:25:05.852Z,9.90
2023-03-27T06:26:09.364Z,9.83
2023-03-27T06:27:11.235Z,9.82
2023-03-27T06:28:14.932Z,9.70
2023-03-27T06:29:18.303Z,9.57
2023-03-27T06:30:23.014Z,9.69
2023-03-27T06:31:30.733Z,9.70
2023-03-27T06:32:37.106Z,9.75
2023-03-27T06:33:42.714Z,9.64
2023-03-27T06:34:50.837Z,9.77
2023-03-27T06:36:00.845Z,9.79
2023-03-27T06:37:03.677Z,9.70
2023-03-27T06:38:09.578Z,9.81
2023-03-27T06:39:13.517Z,9.99
2023-03-27T06:40:25.004Z,10.03
2023-03-27T06:41:27.122Z,10.06
2023-03-27T06:42:33.401Z,9.86
2023-03-27T06:43:35.532Z,9.90
2023-03-27T06:44:41.542Z,9.93
2023-03-27T06:45:46.641Z,9.79
2023-03-27T06:46:50.612Z,9.62
2023-03-27T06:48:13.824Z,9.61
2023-03-27T06:49:22.190Z,9.78
2023-03-27T06:50:26.201Z,9.72
2023-03-27T06:51:28.943Z,9.74
2023-03-27T06:52:31.229Z,9.70
2023-03-27T06:53:37.460Z,9.73
2023-03-27T06:54:40.453Z,9.73
2023-03-27T06:55:43.719Z,9.81
2023-03-27T06:56:46.565Z,9.72
2023-03-27T06:57:51.495Z,9.82
2023-03-27T06:58:53.569Z,9.69
2023-03-27T06:59:59.075Z,9.76
2023-03-27T07:01:13.427Z,9.69
2023-03-27T07:02:20.112Z,9.63
2023-03-27T07:03:23.340Z,9.58
2023-03-27T07:04:28.263Z,9.63
2023-03-27T07:05:36.775Z,9.66
2023-03-27T07:06:39.713Z,9.83
2023-03-27T07:07:43.050Z,9.86
2023-03-27T07:08:47.771Z,9.80
2023-03-27T07:09:51.461Z,9.85
2023-03-27T07:11:59.987Z,9.73
2023-03-27T07:13:02.173Z,9.79
2023-03-27T07:14:04.127Z,9.78
2023-03-27T07:15:07.900Z,9.86
2023-03-27T07:16:12.463Z,9.89
2023-03-27T07:17:14.824Z,9.92
2023-03-27T07:18:17.602Z,10.03
2023-03-27T07:19:23.243Z,9.99
2023-03-27T07:20:30.981Z,9.94
2023-03-27T07:21:33.568Z,9.87
2023-03-27T07:22:36.156Z,10.05
2023-03-27T07:23:38.795Z,10.08
2023-03-27T07:24:41.493Z,9.97
2023-03-27T07:25:43.808Z,9.80
2023-03-27T07:26:46.911Z,9.81
2023-03-27T07:27:49.064Z,9.93
2023-03-27T07:28:51.786Z,9.93
2023-03-27T07:29:54.423Z,9.82
2023-03-27T07:30:56.742Z,9.93
2023-03-27T07:32:01.517Z,9.88
2023-03-27T07:33:09.479Z,9.97
2023-03-27T07:34:11.953Z,9.90
2023-03-27T07:35:20.747Z,9.90
2023-03-27T07:36:26.558Z,9.93
2023-03-27T07:37:29.138Z,10.09
2023-03-27T07:38:33.237Z,10.02
2023-03-27T07:39:36.623Z,9.99
2023-03-27T07:40:40.467Z,9.87
2023-03-27T07:41:43.666Z,9.94
2023-03-27T07:42:49.223Z,9.69
2023-03-27T07:43:51.446Z,9.82
2023-03-27T07:44:57.414Z,9.74
2023-03-27T07:45:59.707Z,9.74
2023-03-27T07:47:02.134Z,9.82
2023-03-27T07:48:11.763Z,9.88
2023-03-27T07:49:14.169Z,9.88
2023-03-27T07:50:19.085Z,10.02
2023-03-27T07:51:22.700Z,9.85
2023-03-27T07:52:25.016Z,9.97
2023-03-27T07:53:32.819Z,10.00
2023-03-27T07:54:38.426Z,9.92
2023-03-27T07:55:42.007Z,9.82
2023-03-27T07:56:45.029Z,9.80
2023-03-27T07:57:59.776Z,9.78
2023-03-27T07:59:04.201Z,9.81
2023-03-27T08:00:14.879Z,9.83
2023-03-27T08:01:18.221Z,9.73
2023-03-27T08:02:20.774Z,9.83
2023-03-27T08:03:26.114Z,9.97
2023-03-27T08:04:28.607Z,10.07
2023-03-27T08:05:31.118Z,10.08
2023-03-27T08:06:38.643Z,10.00
2023-03-27T08:07:45.432Z,9.97
2023-03-27T08:08:48.142Z,9.77
2023-03-27T08:09:50.488Z,9.81
2023-03-27T08:10:55.479Z,9.72
2023-03-27T08:11:58.658Z,9.85
2023-03-27T08:13:01.401Z,9.81
2023-03-27T08:14:03.820Z,9.56
2023-03-27T08:15:07.250Z,9.64
2023-03-27T08:16:11.947Z,9.58
2023-03-27T08:17:16.215Z,9.67
2023-03-27T08:18:19.692Z,9.82
2023-03-27T08:19:22.140Z,9.86
2023-03-27T08:20:24.906Z,9.77
2023-03-27T08:21:26.900Z,9.83
2023-03-27T08:22:29.598Z,9.82
2023-03-27T08:23:40.644Z,10.02
2023-03-27T08:24:51.422Z,9.83
2023-03-27T08:26:00.480Z,9.85
2023-03-27T08:27:03.919Z,9.84
2023-03-27T08:28:06.260Z,9.87
2023-03-27T08:29:09.254Z,9.87
2023-03-27T08:30:16.542Z,9.96
2023-03-27T08:31:19.641Z,9.85
2023-03-27T08:32:21.843Z,9.80
2023-03-27T08:33:27.555Z,9.82
2023-03-27T08:34:30.703Z,9.68
2023-03-27T08:35:32.929Z,9.79
2023-03-27T08:36:36.004Z,9.79
2023-03-27T08:37:38.562Z,9.83
2023-03-27T08:38:43.258Z,9.68
2023-03-27T08:39:48.957Z,9.84
2023-03-27T08:40:54.004Z,9.72
2023-03-27T08:42:03.088Z,9.77
2023-03-27T08:43:09.260Z,9.78
2023-03-27T08:44:14.962Z,9.65
2023-03-27T08:45:43.654Z,9.77
2023-03-27T08:46:52.348Z,9.79
2023-03-27T08:48:04.413Z,9.78
2023-03-27T08:49:15.101Z,9.82
2023-03-27T08:50:28.204Z,9.97
2023-03-27T08:51:41.791Z,9.86
2023-03-27T08:52:46.459Z,9.85
2023-03-27T08:53:57.054Z,9.80
2023-03-27T08:55:14.533Z,9.92
2023-03-27T08:56:20.703Z,9.72
2023-03-27T08:57:24.794Z,9.74
2023-03-27T08:58:28.577Z,9.87
2023-03-27T08:59:31.686Z,9.59
2023-03-27T09:00:40.660Z,9.53
2023-03-27T09:01:56.542Z,9.55
2023-03-27T09:03:12.082Z,9.58
2023-03-27T09:04:19.953Z,9.64
2023-03-27T09:05:40.600Z,9.55
2023-03-27T09:07:09.489Z,9.57
2023-03-27T09:08:32.174Z,9.64
2023-03-27T09:09:45.155Z,9.57
2023-03-27T09:10:55.329Z,9.60
2023-03-27T09:12:11.684Z,9.50
2023-03-27T09:13:29.042Z,9.64
2023-03-27T09:14:41.163Z,9.49
2023-03-27T09:16:00.574Z,9.51
2023-03-27T09:17:16.169Z,9.51
2023-03-27T09:18:27.946Z,9.31
2023-03-27T09:19:56.918Z,9.53
2023-03-27T09:21:05.884Z,9.57
2023-03-27T09:22:20.871Z,9.55
2023-03-27T09:23:38.348Z,9.53
2023-03-27T09:24:47.241Z,9.66
2023-03-27T09:25:56.051Z,9.62
2023-03-27T09:27:20.228Z,9.58
2023-03-27T09:28:30.961Z,9.37
2023-03-27T09:29:39.540Z,9.64
2023-03-27T09:30:42.489Z,9.65
2023-03-27T09:31:52.200Z,9.58
2023-03-27T09:32:58.455Z,9.61
2023-03-27T09:34:05.693Z,9.57
2023-03-27T09:35:18.033Z,9.59
2023-03-27T09:36:21.829Z,9.66
2023-03-27T09:37:23.717Z,9.69
2023-03-27T09:38:34.962Z,9.50
2023-03-27T09:39:41.838Z,9.56
2023-03-27T09:40:49.743Z,9.63
2023-03-27T09:41:57.506Z,9.73
2023-03-27T09:43:17.615Z,9.72
2023-03-27T09:44:40.045Z,9.66
2023-03-27T09:45:44.445Z,9.77
2023-03-27T09:46:49.752Z,9.80
2023-03-27T09:48:01.388Z,9.59
2023-03-27T09:49:18.534Z,9.72
2023-03-27T09:50:32.657Z,9.69
2023-03-27T09:51:44.097Z,9.79
2023-03-27T09:52:46.904Z,9.44
2023-03-27T09:53:59.344Z,9.57
2023-03-27T09:55:02.972Z,9.64
2023-03-27T09:56:13.193Z,9.66
2023-03-27T09:57:17.881Z,9.56
2023-03-27T09:58:28.538Z,9.55
2023-03-27T09:59:33.511Z,9.62
2023-03-27T10:00:36.947Z,9.47
2023-03-27T10:01:48.242Z,9.57
2023-03-27T10:03:00.535Z,9.60
2023-03-27T10:04:13.110Z,9.58
2023-03-27T10:05:20.032Z,9.40
2023-03-27T10:06:32.601Z,9.35
2023-03-27T10:07:35.190Z,9.54
2023-03-27T10:08:50.392Z,9.45
2023-03-27T10:10:15.496Z,9.31
2023-03-27T10:11:24.075Z,9.43
2023-03-27T10:12:27.244Z,9.42
2023-03-27T10:13:29.561Z,9.45
2023-03-27T10:14:40.922Z,9.30
2023-03-27T10:15:43.417Z,9.26
2023-03-27T10:16:47.732Z,9.31
2023-03-27T10:17:50.375Z,9.27
2023-03-27T10:18:55.727Z,9.42
2023-03-27T10:20:14.314Z,9.32
2023-03-27T10:21:33.110Z,9.31
2023-03-27T10:22:38.589Z,9.30
2023-03-27T10:23:49.979Z,9.32
2023-03-27T10:24:53.620Z,9.27
2023-03-27T10:26:01.544Z,9.37
2023-03-27T10:27:09.736Z,9.30
2023-03-27T10:28:17.484Z,9.26
2023-03-27T10:29:32.331Z,9.30
2023-03-27T10:30:38.009Z,9.18
2023-03-27T10:31:50.359Z,9.08
2023-03-27T10:32:52.936Z,9.23
2023-03-27T10:34:01.001Z,9.21
2023-03-27T10:35:05.495Z,9.17
2023-03-27T10:36:11.924Z,9.26
2023-03-27T10:37:27.416Z,9.24
2023-03-27T10:38:33.345Z,9.07
2023-03-27T10:39:35.898Z,9.26
2023-03-27T10:40:40.619Z,9.26
2023-03-27T10:41:48.234Z,9.30
2023-03-27T10:42:50.848Z,9.28
2023-03-27T10:43:53.605Z,9.35
2023-03-27T10:44:57.602Z,9.27
2023-03-27T10:46:22.378Z,9.21
2023-03-27T10:47:30.286Z,9.21
2023-03-27T10:48:47.731Z,9.21
2023-03-27T10:50:24.233Z,9.29
2023-03-27T10:51:45.650Z,9.48
2023-03-27T10:52:55.373Z,9.56
2023-03-27T10:54:32.293Z,9.44
2023-03-27T10:55:41.475Z,9.40
2023-03-27T10:57:12.504Z,9.45
2023-03-27T10:58:39.071Z,9.21
2023-03-27T11:00:19.964Z,9.42
2023-03-27T11:01:39.462Z,9.25
2023-03-27T11:02:57.532Z,9.12
2023-03-27T11:04:08.268Z,9.32
2023-03-27T11:05:23.547Z,9.35
2023-03-27T11:06:32.453Z,9.30
2023-03-27T11:07:55.688Z,9.29
2023-03-27T11:09:20.376Z,9.37
2023-03-27T11:10:30.490Z,9.25
2023-03-27T11:11:58.536Z,9.19
2023-03-27T11:13:23.944Z,9.23
2023-03-27T11:14:35.647Z,9.32
2023-03-27T11:15:44.282Z,9.35
2023-03-27T11:16:55.662Z,9.56
2023-03-27T11:18:27.715Z,9.51
2023-03-27T11:19:43.123Z,9.47
2023-03-27T11:20:51.912Z,9.38
2023-03-27T11:22:17.186Z,9.49
2023-03-27T11:23:44.651Z,9.48
2023-03-27T11:24:57.009Z,9.44
2023-03-27T11:26:03.138Z,9.46
2023-03-27T11:27:38.429Z,9.37
2023-03-27T11:28:47.075Z,9.35
2023-03-27T11:29:59.936Z,9.30
2023-03-27T11:31:44.182Z,9.37
2023-03-27T11:33:09.664Z,9.48
2023-03-27T11:34:31.096Z,9.51
2023-03-27T11:35:43.757Z,9.64
2023-03-27T11:37:01.636Z,9.60
2023-03-27T11:38:16.446Z,9.74
2023-03-27T11:39:51.677Z,9.56
2023-03-27T11:40:53.654Z,9.44
2023-03-27T11:42:02.572Z,9.46
2023-03-27T11:43:05.161Z,9.29
2023-03-27T11:44:10.688Z,9.70
2023-03-27T11:45:19.045Z,9.64
2023-03-27T11:46:51.375Z,9.50
2023-03-27T11:48:05.586Z,9.65
2023-03-27T11:49:27.593Z,9.59
2023-03-27T11:50:34.778Z,9.26
2023-03-27T11:51:41.777Z,9.35
2023-03-27T11:52:46.799Z,9.30
2023-03-27T11:54:03.516Z,9.58
2023-03-27T11:55:41.032Z,9.42
2023-03-27T11:56:48.721Z,9.33
2023-03-27T11:58:03.255Z,9.47
2023-03-27T11:59:11.091Z,9.54
2023-03-27T12:00:34.089Z,9.58
2023-03-27T12:01:44.922Z,9.39
2023-03-27T12:03:33.684Z,9.40
2023-03-27T12:04:43.157Z,9.28
2023-03-27T12:06:02.049Z,9.40
2023-03-27T12:07:05.357Z,9.45
2023-03-27T12:08:14.136Z,9.37
2023-03-27T12:09:43.670Z,9.46
2023-03-27T12:10:51.125Z,9.25
2023-03-27T12:12:30.085Z,9.36
2023-03-27T12:14:00.533Z,9.38
2023-03-27T12:15:29.861Z,9.32
2023-03-27T12:17:12.490Z,9.44
2023-03-27T12:18:41.370Z,9.25
2023-03-27T12:19:50.857Z,9.27
2023-03-27T12:21:13.775Z,9.28
2023-03-27T12:22:58.454Z,9.18
2023-03-27T12:24:29.809Z,9.17
2023-03-27T12:26:09.906Z,9.22
2023-03-27T12:27:26.158Z,9.40
2023-03-27T12:28:49.934Z,9.13
2023-03-27T12:30:27.372Z,9.25
2023-03-27T12:32:08.759Z,9.26
2023-03-27T12:33:39.479Z,9.23
2023-03-27T12:34:50.110Z,9.26
2023-03-27T12:35:57.658Z,9.35
2023-03-27T12:37:01.852Z,9.32
2023-03-27T12:38:08.411Z,9.36
2023-03-27T12:39:26.711Z,9.33
2023-03-27T12:40:31.298Z,9.37
2023-03-27T12:41:43.131Z,9.33
2023-03-27T12:42:49.044Z,9.29
2023-03-27T12:43:59.731Z,9.40
2023-03-27T12:45:23.525Z,9.34
2023-03-27T12:46:28.888Z,9.34
2023-03-27T12:47:31.105Z,9.33
2023-03-27T12:48:48.505Z,9.41
2023-03-27T12:50:18.083Z,9.46
2023-03-27T12:51:47.533Z,9.50
2023-03-27T12:52:53.190Z,9.47
2023-03-27T12:53:56.407Z,9.39
2023-03-27T12:55:13.834Z,9.08
2023-03-27T12:56:17.122Z,9.31
2023-03-27T12:57:22.453Z,9.37
2023-03-27T12:58:35.108Z,9.50
2023-03-27T12:59:53.753Z,9.54
2023-03-27T13:01:00.189Z,9.54
2023-03-27T13:02:06.295Z,9.60
2023-03-27T13:03:51.815Z,9.63
2023-03-27T13:05:24.165Z,9.49
2023-03-27T13:06:47.139Z,9.47
2023-03-27T13:08:12.279Z,9.48
2023-03-27T13:09:35.391Z,9.51
2023-03-27T13:11:08.959Z,9.40
2023-03-27T13:12:23.085Z,9.30
2023-03-27T13:14:11.513Z,9.54
2023-03-27T13:15:53.591Z,9.56
2023-03-27T13:17:20.984Z,9.36
2023-03-27T13:18:59.044Z,9.48
2023-03-27T13:20:39.217Z,9.28
2023-03-27T13:21:51.272Z,9.35
2023-03-27T13:23:08.340Z,9.17
2023-03-27T13:24:23.644Z,8.99
2023-03-27T13:26:00.853Z,9.16
2023-03-27T13:27:28.862Z,9.09
2023-03-27T13:28:40.138Z,9.12
2023-03-27T13:29:47.979Z,9.09
2023-03-27T13:30:53.172Z,9.16
2023-03-27T13:32:16.627Z,9.07
2023-03-27T13:33:30.106Z,9.17
2023-03-27T13:34:41.588Z,8.87
2023-03-27T13:35:52.758Z,9.07
2023-03-27T13:37:07.474Z,8.97
2023-03-27T13:38:14.616Z,9.08
2023-03-27T13:39:24.946Z,8.85
2023-03-27T13:40:35.531Z,8.80
2023-03-27T13:41:44.843Z,8.78
2023-03-27T13:42:53.241Z,8.61
2023-03-27T13:43:55.908Z,8.71
2023-03-27T13:45:17.610Z,8.61
2023-03-27T13:46:29.172Z,8.51
2023-03-27T13:47:34.993Z,8.53
2023-03-27T13:49:04.933Z,8.60
2023-03-27T13:50:37.990Z,8.44
2023-03-27T13:52:22.521Z,8.29
2023-03-27T13:53:37.769Z,8.14
2023-03-27T13:55:17.682Z,8.17
2023-03-27T13:56:45.431Z,8.39
2023-03-27T13:58:09.336Z,8.23
2023-03-27T13:59:42.324Z,7.98
2023-03-27T14:01:21.049Z,8.09
2023-03-27T14:03:02.224Z,7.95
2023-03-27T14:04:36.066Z,8.05
2023-03-27T14:05:58.856Z,7.96
2023-03-27T14:07:43.344Z,8.11
2023-03-27T14:09:11.427Z,7.97
2023-03-27T14:10:23.635Z,8.02
2023-03-27T14:12:09.814Z,7.78
2023-03-27T14:13:13.846Z,7.95
2023-03-27T14:14:46.888Z,7.94
2023-03-27T14:16:31.580Z,7.91
2023-03-27T14:17:56.764Z,7.88
2023-03-27T14:19:52.977Z,7.72
2023-03-27T14:21:01.877Z,7.78
2023-03-27T14:22:32.205Z,7.79
2023-03-27T14:24:04.115Z,7.88
2023-03-27T14:25:14.293Z,7.69
2023-03-27T14:26:21.569Z,7.66
2023-03-27T14:27:24.557Z,7.69
2023-03-27T14:28:34.767Z,7.44
2023-03-27T14:29:37.148Z,7.34
2023-03-27T14:30:47.496Z,7.40
2023-03-27T14:31:51.376Z,7.37
2023-03-27T14:32:56.633Z,7.27
2023-03-27T14:34:12.660Z,7.36
2023-03-27T14:35:36.023Z,7.39
2023-03-27T14:36:50.197Z,7.34
2023-03-27T14:38:00.259Z,7.30
2023-03-27T14:39:14.729Z,7.11
2023-03-27T14:40:37.189Z,7.20
2023-03-27T14:42:05.662Z,7.04
2023-03-27T14:43:12.257Z,7.03
2023-03-27T14:44:18.025Z,7.12
2023-03-27T14:45:27.244Z,6.94
2023-03-27T14:46:30.309Z,7.03
2023-03-27T14:47:33.673Z,7.10
2023-03-27T14:48:38.831Z,6.97
2023-03-27T14:49:49.026Z,6.81
2023-03-27T14:50:58.060Z,6.70
2023-03-27T14:52:04.395Z,6.69
2023-03-27T14:53:11.072Z,6.56
2023-03-27T14:54:27.356Z,6.59
2023-03-27T14:55:34.435Z,6.76
2023-03-27T14:56:47.444Z,6.73
2023-03-27T14:57:57.751Z,6.87
2023-03-27T14:59:05.678Z,6.88
2023-03-27T15:00:16.599Z,6.87
2023-03-27T15:01:18.949Z,6.72
2023-03-27T15:02:34.919Z,6.72
2023-03-27T15:03:38.576Z,7.09
2023-03-27T15:04:41.071Z,6.87
2023-03-27T15:05:54.090Z,6.68
2023-03-27T15:07:35.779Z,6.54
2023-03-27T15:08:38.971Z,6.78
2023-03-27T15:09:41.982Z,6.84
2023-03-27T15:10:50.991Z,6.66
2023-03-27T15:11:57.764Z,6.69
2023-03-27T15:13:00.023Z,6.80
2023-03-27T15:14:02.525Z,6.50
2023-03-27T15:15:17.081Z,6.46
2023-03-27T15:16:23.044Z,6.35
2023-03-27T15:17:27.907Z,6.41
2023-03-27T15:18:36.067Z,6.38
2023-03-27T15:19:45.602Z,6.42
2023-03-27T15:20:50.447Z,6.37
2023-03-27T15:22:30.903Z,6.32